Time;durP1;ratioP1;P1;durP2;ratioP2;P2;SDS_P1;SDS_P2;PMS_P1;PMS_P2;Temp;Humidity;BMP_temperature;BMP_pressure;BME280_temperature;BME280_humidity;BME280_pressure;Samples;Min_cycle;Max_cycle;Signal;HPM_P1;HPM_P2
2023/02/22 00:03:59;;;;;;;6.43;2.67;;;6.30;99.90;;;;;;5028401;28;20081;-83
2023/02/22 00:06:26;;;;;;;6.40;2.35;;;6.30;99.90;;;;;;5029213;28;20284;-84
2023/02/22 00:08:54;;;;;;;5.43;2.60;;;6.30;99.90;;;;;;5032919;28;20045;-83
2023/02/22 00:11:21;;;;;;;5.85;2.03;;;6.30;99.90;;;;;;5036430;28;20081;-84
2023/02/22 00:13:49;;;;;;;6.20;2.63;;;6.30;99.90;;;;;;5032616;28;20413;-84
2023/02/22 00:16:19;;;;;;;4.28;2.42;;;6.30;99.90;;;;;;5023666;28;20038;-84
2023/02/22 00:18:46;;;;;;;3.13;2.35;;;6.30;99.90;;;;;;5029989;28;20081;-83
2023/02/22 00:21:15;;;;;;;5.25;2.75;;;6.20;99.90;;;;;;5033870;28;20126;-83
2023/02/22 00:23:47;;;;;;;5.88;2.40;;;6.20;99.90;;;;;;5036640;28;20084;-83
2023/02/22 00:26:17;;;;;;;5.00;2.85;;;6.20;99.90;;;;;;5035485;28;20046;-83
2023/02/22 00:28:47;;;;;;;6.07;3.33;;;6.20;99.90;;;;;;5034785;28;20541;-84
2023/02/22 00:31:14;;;;;;;6.32;3.42;;;6.20;99.90;;;;;;5030594;28;20052;-84
2023/02/22 00:33:42;;;;;;;8.00;3.38;;;6.20;99.90;;;;;;5030032;28;20045;-83
2023/02/22 00:36:10;;;;;;;9.52;3.22;;;6.10;99.90;;;;;;5032503;28;20041;-84
2023/02/22 00:38:38;;;;;;;6.55;3.28;;;6.10;99.90;;;;;;5037635;28;20088;-83
2023/02/22 00:41:06;;;;;;;19.05;3.10;;;6.10;99.90;;;;;;5036178;28;20110;-83
2023/02/22 00:43:33;;;;;;;6.22;2.92;;;6.10;99.90;;;;;;5023004;28;20054;-82
2023/02/22 00:46:00;;;;;;;7.05;3.08;;;6.10;99.90;;;;;;5026063;28;20065;-83
2023/02/22 00:48:27;;;;;;;4.95;2.50;;;6.00;99.90;;;;;;5030718;28;20479;-83
2023/02/22 00:50:54;;;;;;;3.05;1.98;;;6.00;99.90;;;;;;5048481;28;20145;-83
2023/02/22 00:53:22;;;;;;;3.70;2.03;;;6.00;99.90;;;;;;5036051;28;20412;-84
2023/02/22 00:55:50;;;;;;;6.63;2.72;;;6.00;99.90;;;;;;5034149;28;20105;-84
2023/02/22 00:58:17;;;;;;;5.55;3.25;;;6.00;99.90;;;;;;5041721;28;20049;-83
2023/02/22 01:00:44;;;;;;;7.13;2.97;;;5.90;99.90;;;;;;5024278;28;20059;-83
2023/02/22 01:03:13;;;;;;;3.70;2.50;;;5.90;99.90;;;;;;5031632;28;20052;-84
2023/02/22 01:05:41;;;;;;;4.70;2.33;;;5.90;99.90;;;;;;5032684;28;20577;-84
2023/02/22 01:08:09;;;;;;;3.72;2.30;;;5.90;99.90;;;;;;5034822;28;20424;-83
2023/02/22 01:10:37;;;;;;;3.38;2.30;;;5.80;99.90;;;;;;5027695;28;20085;-82
2023/02/22 01:13:07;;;;;;;4.00;2.55;;;5.80;99.90;;;;;;5026395;28;20112;-83
2023/02/22 01:15:36;;;;;;;4.65;2.20;;;5.80;99.90;;;;;;5028525;28;20050;-83
2023/02/22 01:18:04;;;;;;;3.65;2.47;;;5.80;99.90;;;;;;5046384;28;20041;-83
2023/02/22 01:20:31;;;;;;;9.75;3.38;;;5.80;99.90;;;;;;5036785;28;20056;-83
2023/02/22 01:23:00;;;;;;;6.75;3.20;;;5.80;99.90;;;;;;5039990;28;20068;-83
2023/02/22 01:25:28;;;;;;;4.78;2.70;;;5.70;99.90;;;;;;5023523;28;20056;-83
2023/02/22 01:27:56;;;;;;;4.68;2.65;;;5.70;99.90;;;;;;5022692;28;20133;-83
2023/02/22 01:30:31;;;;;;;4.95;3.13;;;5.70;99.90;;;;;;5026383;28;20057;-83
2023/02/22 01:33:00;;;;;;;8.73;3.67;;;5.70;99.90;;;;;;5030583;28;20461;-84
2023/02/22 01:35:29;;;;;;;4.53;2.63;;;5.70;99.90;;;;;;5034359;28;20049;-84
2023/02/22 01:37:57;;;;;;;4.47;2.45;;;5.70;99.90;;;;;;5035363;28;20037;-83
2023/02/22 01:40:30;;;;;;;3.00;1.80;;;5.70;99.90;;;;;;5024340;28;20145;-83
2023/02/22 01:42:59;;;;;;;3.58;1.88;;;5.70;99.90;;;;;;5024863;28;20128;-84
2023/02/22 01:45:29;;;;;;;3.30;2.00;;;5.70;99.90;;;;;;5029164;28;20144;-84
2023/02/22 01:48:16;;;;;;;6.18;2.50;;;5.60;99.90;;;;;;5030888;28;20516;-83
2023/02/22 01:50:53;;;;;;;4.68;1.90;;;5.60;99.90;;;;;;5032129;28;20068;-83
2023/02/22 01:53:23;;;;;;;3.83;2.13;;;5.60;99.90;;;;;;5031561;28;20046;-83
2023/02/22 01:55:54;;;;;;;2.83;2.03;;;5.60;99.90;;;;;;5023552;28;20042;-82
2023/02/22 01:58:24;;;;;;;4.22;2.33;;;5.60;99.90;;;;;;5027260;28;20041;-83
2023/02/22 02:00:51;;;;;;;3.42;2.47;;;5.60;99.90;;;;;;5025959;28;20104;-83
2023/02/22 02:03:27;;;;;;;4.20;2.30;;;5.60;99.90;;;;;;5033132;28;20053;-84
2023/02/22 02:05:57;;;;;;;3.53;2.08;;;5.60;99.90;;;;;;5034923;28;20049;-83
2023/02/22 02:08:50;;;;;;;5.07;2.90;;;5.50;99.90;;;;;;5023510;28;20046;-84
2023/02/22 02:11:21;;;;;;;7.57;2.47;;;5.50;99.90;;;;;;5021561;28;20065;-83
2023/02/22 02:13:56;;;;;;;5.07;2.75;;;5.50;99.90;;;;;;5029405;28;20046;-83
2023/02/22 02:16:37;;;;;;;6.55;2.90;;;5.50;99.90;;;;;;5037107;28;20037;-84
2023/02/22 02:19:30;;;;;;;7.90;3.13;;;5.50;99.90;;;;;;5032648;28;20042;-83
2023/02/22 02:22:27;;;;;;;5.95;3.03;;;5.50;99.90;;;;;;5000715;28;20045;-83
2023/02/22 02:25:23;;;;;;;3.95;2.10;;;5.50;99.90;;;;;;4970848;28;20083;-83
2023/02/22 02:28:27;;;;;;;4.53;2.35;;;5.50;99.90;;;;;;5019967;28;20056;-83
2023/02/22 02:31:09;;;;;;;3.20;2.10;;;5.40;99.90;;;;;;5034510;28;20579;-84
2023/02/22 02:33:49;;;;;;;9.90;2.75;;;5.40;99.90;;;;;;5035965;28;20053;-83
2023/02/22 02:36:25;;;;;;;4.95;2.22;;;5.40;99.90;;;;;;5024157;28;20050;-83
2023/02/22 02:39:02;;;;;;;5.15;2.53;;;5.40;99.90;;;;;;5018561;28;20042;-84
2023/02/22 02:41:35;;;;;;;2.95;2.03;;;5.30;99.90;;;;;;5027158;28;20054;-84
2023/02/22 02:44:16;;;;;;;4.80;2.30;;;5.30;99.90;;;;;;5030848;28;20045;-84
2023/02/22 02:46:51;;;;;;;8.13;2.83;;;5.30;99.90;;;;;;5032801;28;20046;-83
2023/02/22 02:49:24;;;;;;;7.55;3.00;;;5.30;99.90;;;;;;5033411;28;20084;-83
2023/02/22 02:51:53;;;;;;;4.22;2.40;;;5.30;99.90;;;;;;5021486;28;20064;-83
2023/02/22 02:54:22;;;;;;;11.18;3.95;;;5.30;99.90;;;;;;5027388;28;20124;-83
2023/02/22 02:56:49;;;;;;;5.70;2.90;;;5.30;99.90;;;;;;5028637;28;20046;-83
2023/02/22 02:59:29;;;;;;;7.35;3.60;;;5.30;99.90;;;;;;5031296;28;20061;-82
2023/02/22 03:02:17;;;;;;;6.15;3.15;;;5.30;99.90;;;;;;5024070;28;20046;-83
2023/02/22 03:05:15;;;;;;;4.07;2.90;;;5.20;99.90;;;;;;5019453;28;20050;-83
2023/02/22 03:07:54;;;;;;;4.68;3.00;;;5.20;99.90;;;;;;5025741;28;20394;-83
2023/02/22 03:10:37;;;;;;;5.90;3.13;;;5.20;99.90;;;;;;5029042;28;20045;-84
2023/02/22 03:13:25;;;;;;;8.07;3.67;;;5.20;99.90;;;;;;5040938;28;20048;-83
2023/02/22 03:16:22;;;;;;;5.93;3.20;;;5.20;99.90;;;;;;5035366;28;20559;-83
2023/02/22 03:19:07;;;;;;;8.85;3.22;;;5.20;99.90;;;;;;5018974;28;20062;-82
2023/02/22 03:21:46;;;;;;;6.35;3.60;;;5.20;99.90;;;;;;5037530;28;20060;-83
2023/02/22 03:24:41;;;;;;;5.78;2.72;;;5.20;99.90;;;;;;5026195;28;20053;-82
2023/02/22 03:27:23;;;;;;;5.75;3.58;;;5.20;99.90;;;;;;5030315;28;20050;-83
2023/02/22 03:29:54;;;;;;;4.88;2.88;;;5.10;99.90;;;;;;5027825;28;20046;-82
2023/02/22 03:32:26;;;;;;;4.32;2.85;;;5.10;99.90;;;;;;5020965;28;20046;-83
2023/02/22 03:34:58;;;;;;;4.05;3.00;;;5.10;99.90;;;;;;5023164;28;20052;-82
2023/02/22 03:37:32;;;;;;;7.72;3.38;;;5.10;99.90;;;;;;5026076;28;20478;-83
2023/02/22 03:40:06;;;;;;;6.38;3.65;;;5.10;99.90;;;;;;5030078;28;20041;-83
2023/02/22 03:42:36;;;;;;;6.07;3.40;;;5.10;99.90;;;;;;5029633;28;20049;-83
2023/02/22 03:45:05;;;;;;;7.32;3.90;;;5.10;99.90;;;;;;5028668;28;20129;-83
2023/02/22 03:47:40;;;;;;;8.85;3.88;;;5.10;99.90;;;;;;5017352;28;20113;-85
2023/02/22 03:50:17;;;;;;;6.72;3.05;;;5.10;99.90;;;;;;5026954;28;20045;-83
2023/02/22 03:52:46;;;;;;;8.63;3.05;;;5.10;99.90;;;;;;5030591;28;20048;-84
2023/02/22 03:55:16;;;;;;;5.30;2.92;;;5.10;99.90;;;;;;5032904;28;20045;-83
2023/02/22 03:57:48;;;;;;;;;;;5.00;99.90;;;;;;5049110;28;20076;-83
2023/02/22 04:00:19;;;;;;;5.68;2.92;;;5.10;99.90;;;;;;5030023;28;19928;-82
2023/02/22 04:02:46;;;;;;;5.32;3.33;;;5.00;99.90;;;;;;5044251;28;20057;-83
2023/02/22 04:05:13;;;;;;;10.98;3.13;;;5.10;99.90;;;;;;5030449;28;20049;-84
2023/02/22 04:07:41;;;;;;;6.32;3.42;;;5.10;99.90;;;;;;5041966;28;20052;-83
2023/02/22 04:10:09;;;;;;;8.75;3.80;;;5.00;99.90;;;;;;5033254;28;20052;-83
2023/02/22 04:12:36;;;;;;;9.30;3.67;;;5.00;99.90;;;;;;5033289;28;20053;-83
2023/02/22 04:15:06;;;;;;;7.53;3.40;;;5.00;99.90;;;;;;5021208;28;20121;-82
2023/02/22 04:17:33;;;;;;;7.28;3.40;;;5.00;99.90;;;;;;5025728;28;20141;-83
2023/02/22 04:19:59;;;;;;;11.95;3.88;;;5.00;99.90;;;;;;5029097;28;20076;-82
2023/02/22 04:22:26;;;;;;;7.32;3.58;;;5.00;99.90;;;;;;5031248;28;20058;-83
2023/02/22 04:24:53;;;;;;;5.55;3.65;;;5.00;99.90;;;;;;5035996;28;20497;-83
2023/02/22 04:27:19;;;;;;;7.03;3.83;;;4.90;99.90;;;;;;5038002;28;20053;-83
2023/02/22 04:29:46;;;;;;;8.15;3.25;;;4.90;99.90;;;;;;5015998;28;20050;-83
2023/02/22 04:32:13;;;;;;;6.18;3.45;;;4.90;99.90;;;;;;5026998;28;20049;-82
2023/02/22 04:34:39;;;;;;;7.88;3.55;;;4.90;99.90;;;;;;5028901;28;20050;-83
2023/02/22 04:37:06;;;;;;;7.10;3.33;;;4.90;99.90;;;;;;5033039;28;20401;-83
2023/02/22 04:39:33;;;;;;;7.15;3.00;;;4.90;99.90;;;;;;5032419;28;20128;-83
2023/02/22 04:42:00;;;;;;;5.40;3.05;;;4.90;99.90;;;;;;5027164;28;20066;-83
2023/02/22 04:44:26;;;;;;;3.97;3.10;;;4.90;99.90;;;;;;5024725;28;20049;-83
2023/02/22 04:46:53;;;;;;;4.78;2.70;;;4.90;99.90;;;;;;5025849;28;20049;-83
2023/02/22 04:49:20;;;;;;;3.80;2.70;;;4.90;99.90;;;;;;5032910;28;20045;-84
2023/02/22 04:51:46;;;;;;;8.88;2.78;;;4.90;99.90;;;;;;5036185;28;20054;-82
2023/02/22 04:54:15;;;;;;;3.80;2.20;;;4.90;99.90;;;;;;5035806;28;20489;-82
2023/02/22 04:56:42;;;;;;;5.72;2.85;;;4.90;99.90;;;;;;5021918;28;20141;-84
2023/02/22 04:59:09;;;;;;;4.20;2.75;;;4.90;99.90;;;;;;5023508;28;20580;-84
2023/02/22 05:01:36;;;;;;;3.80;2.08;;;4.90;99.90;;;;;;5030920;28;20057;-83
2023/02/22 05:04:05;;;;;;;4.47;2.80;;;4.90;99.90;;;;;;5036868;28;20042;-83
2023/02/22 05:06:32;;;;;;;3.95;2.72;;;4.90;99.90;;;;;;5029572;28;20045;-83
2023/02/22 05:08:59;;;;;;;6.00;2.40;;;4.80;99.90;;;;;;5037588;28;20060;-83
2023/02/22 05:11:25;;;;;;;3.75;2.25;;;4.80;99.90;;;;;;5021035;28;20089;-82
2023/02/22 05:13:55;;;;;;;5.65;2.58;;;4.80;99.90;;;;;;5021654;28;20047;-83
2023/02/22 05:16:22;;;;;;;4.70;2.30;;;4.80;99.90;;;;;;5026180;28;20429;-82
2023/02/22 05:18:49;;;;;;;5.15;2.38;;;4.80;99.90;;;;;;5030964;28;20099;-83
2023/02/22 05:21:16;;;;;;;5.18;2.40;;;4.80;99.90;;;;;;5029336;28;20064;-83
2023/02/22 05:23:43;;;;;;;2.95;1.98;;;4.80;99.90;;;;;;5028603;28;20409;-83
2023/02/22 05:26:09;;;;;;;7.15;2.38;;;4.80;99.90;;;;;;5023062;28;20128;-82
2023/02/22 05:28:37;;;;;;;4.63;2.67;;;4.80;99.90;;;;;;5027988;28;20087;-83
2023/02/22 05:31:04;;;;;;;10.52;3.95;;;4.80;99.90;;;;;;5029261;28;20057;-83
2023/02/22 05:33:31;;;;;;;9.20;4.57;;;4.80;99.90;;;;;;5035657;28;20045;-84
2023/02/22 05:35:57;;;;;;;7.47;3.85;;;4.80;99.90;;;;;;5040773;28;20133;-83
2023/02/22 05:38:24;;;;;;;5.65;3.38;;;4.80;99.90;;;;;;5035322;28;20056;-83
2023/02/22 05:40:51;;;;;;;6.50;2.85;;;4.90;99.90;;;;;;5020864;28;20072;-83
2023/02/22 05:43:18;;;;;;;3.90;2.45;;;4.90;99.90;;;;;;5027494;28;20138;-83
2023/02/22 05:45:44;;;;;;;5.78;2.50;;;4.90;99.90;;;;;;5032372;28;20088;-83
2023/02/22 05:48:11;;;;;;;5.60;3.30;;;4.80;99.90;;;;;;5046909;28;20045;-83
2023/02/22 05:50:39;;;;;;;4.32;3.00;;;4.80;99.90;;;;;;5034798;28;20049;-82
2023/02/22 05:53:06;;;;;;;6.80;4.10;;;4.80;99.90;;;;;;5027285;28;20056;-83
2023/02/22 05:55:32;;;;;;;4.15;3.08;;;4.90;99.90;;;;;;5027446;28;20050;-83
2023/02/22 05:58:00;;;;;;;9.23;2.88;;;4.90;99.90;;;;;;5036905;28;20072;-83
2023/02/22 06:00:29;;;;;;;4.63;2.58;;;4.80;99.90;;;;;;5030007;28;20136;-82
2023/02/22 06:02:59;;;;;;;6.63;3.50;;;4.90;99.90;;;;;;5033137;28;20080;-84
2023/02/22 06:05:26;;;;;;;6.35;3.20;;;4.80;99.90;;;;;;5028445;28;20296;-83
2023/02/22 06:07:53;;;;;;;7.70;3.10;;;4.90;99.90;;;;;;5033097;28;20042;-83
2023/02/22 06:10:20;;;;;;;7.22;3.30;;;4.90;99.90;;;;;;5041378;28;20068;-83
2023/02/22 06:12:48;;;;;;;4.38;2.88;;;4.90;99.90;;;;;;5026955;28;20132;-83
2023/02/22 06:15:16;;;;;;;7.70;2.97;;;4.90;99.90;;;;;;5031773;28;20045;-82
2023/02/22 06:17:43;;;;;;;8.35;2.95;;;4.90;99.90;;;;;;5046681;28;20052;-83
2023/02/22 06:20:13;;;;;;;5.32;3.05;;;4.90;99.90;;;;;;5031736;28;20042;-82
2023/02/22 06:22:43;;;;;;;5.23;2.87;;;4.90;99.90;;;;;;5022726;28;20099;-82
2023/02/22 06:25:14;;;;;;;9.80;4.40;;;4.90;99.90;;;;;;5020972;28;20133;-83
2023/02/22 06:27:41;;;;;;;9.18;3.72;;;4.90;99.90;;;;;;5026263;28;20587;-83
2023/02/22 06:30:09;;;;;;;9.07;3.58;;;5.00;99.90;;;;;;5027924;28;20589;-81
2023/02/22 06:32:38;;;;;;;9.63;3.58;;;5.00;99.90;;;;;;5022530;28;20045;-81
2023/02/22 06:35:06;;;;;;;12.13;3.38;;;5.00;99.90;;;;;;5028759;28;20662;-83
2023/02/22 06:37:32;;;;;;;7.50;3.63;;;5.00;99.90;;;;;;5023132;28;20058;-83
2023/02/22 06:39:59;;;;;;;13.40;3.80;;;4.90;99.90;;;;;;5026619;28;20041;-83
2023/02/22 06:42:30;;;;;;;8.50;3.42;;;5.00;99.90;;;;;;5028353;28;20060;-84
2023/02/22 06:44:57;;;;;;;7.28;3.08;;;4.90;99.90;;;;;;5032200;28;20051;-82
2023/02/22 06:47:23;;;;;;;11.93;3.38;;;5.00;99.90;;;;;;5040090;28;20049;-83
2023/02/22 06:49:54;;;;;;;8.38;3.10;;;5.00;99.90;;;;;;5018543;28;20050;-82
2023/02/22 06:52:22;;;;;;;9.23;3.97;;;5.00;99.90;;;;;;5027641;28;20038;-84
2023/02/22 06:54:49;;;;;;;14.02;4.70;;;5.00;99.90;;;;;;5045974;28;20060;-83
2023/02/22 06:57:16;;;;;;;11.50;4.30;;;5.00;99.90;;;;;;5028124;28;20046;-83
2023/02/22 06:59:43;;;;;;;8.35;3.83;;;5.10;99.90;;;;;;5028159;28;20056;-83
2023/02/22 07:02:13;;;;;;;11.88;4.68;;;5.10;99.90;;;;;;5029225;28;20042;-83
2023/02/22 07:04:40;;;;;;;;;;;5.10;99.90;;;;;;5019080;28;20421;-83
2023/02/22 07:07:09;;;;;;;8.10;4.55;;;5.10;99.90;;;;;;5024502;28;19971;-83
2023/02/22 07:09:36;;;;;;;13.05;5.45;;;5.20;99.90;;;;;;5026481;28;20061;-82
2023/02/22 07:12:03;;;;;;;9.18;4.95;;;5.30;99.90;;;;;;5040413;28;20477;-84
2023/02/22 07:14:29;;;;;;;13.30;4.20;;;5.30;99.90;;;;;;5031741;28;20065;-83
2023/02/22 07:16:56;;;;;;;11.68;4.72;;;5.40;99.90;;;;;;5036217;28;20502;-83
2023/02/22 07:19:23;;;;;;;13.10;5.68;;;5.40;99.90;;;;;;5018337;28;20046;-83
2023/02/22 07:21:55;;;;;;;12.27;5.70;;;5.50;99.90;;;;;;5024031;28;20110;-83
2023/02/22 07:24:22;;;;;;;12.73;6.57;;;5.50;99.90;;;;;;5044300;28;20045;-83
2023/02/22 07:26:49;;;;;;;10.13;5.43;;;5.60;99.90;;;;;;5032864;28;20046;-83
2023/02/22 07:29:15;;;;;;;9.27;4.25;;;5.70;99.90;;;;;;5037681;28;20132;-83
2023/02/22 07:31:42;;;;;;;16.15;4.25;;;5.70;99.90;;;;;;5029654;28;20045;-83
2023/02/22 07:34:09;;;;;;;9.13;4.20;;;5.80;99.90;;;;;;5022964;28;20048;-83
2023/02/22 07:36:35;;;;;;;9.05;4.70;;;5.90;99.90;;;;;;5028633;28;20049;-83
2023/02/22 07:39:02;;;;;;;12.48;3.75;;;5.90;99.90;;;;;;5027990;28;20045;-83
2023/02/22 07:41:29;;;;;;;12.10;4.32;;;6.00;99.90;;;;;;5028863;28;20050;-82
2023/02/22 07:43:55;;;;;;;9.73;5.63;;;6.00;99.90;;;;;;5049169;28;20448;-82
2023/02/22 07:46:22;;;;;;;8.57;6.28;;;6.10;99.90;;;;;;5026563;28;20455;-84
2023/02/22 07:48:49;;;;;;;15.20;8.20;;;6.20;99.90;;;;;;5033699;28;20050;-83
2023/02/22 07:51:16;;;;;;;15.63;8.00;;;6.20;99.90;;;;;;5028863;28;20124;-82
2023/02/22 07:53:44;;;;;;;13.05;8.45;;;6.30;99.90;;;;;;5028845;28;20064;-82
2023/02/22 07:56:10;;;;;;;17.17;9.32;;;6.50;99.90;;;;;;5033547;28;20042;-82
2023/02/22 07:58:37;;;;;;;16.67;9.30;;;6.60;99.90;;;;;;5034617;28;20052;-83
2023/02/22 08:01:04;;;;;;;18.88;9.70;;;6.80;99.90;;;;;;5019247;28;20473;-82
2023/02/22 08:03:35;;;;;;;14.52;8.93;;;6.90;99.90;;;;;;5036808;28;20053;-82
2023/02/22 08:06:03;;;;;;;17.05;9.75;;;7.00;99.90;;;;;;5030135;28;20056;-82
2023/02/22 08:08:30;;;;;;;19.55;9.13;;;7.20;99.90;;;;;;5030872;28;20054;-83
2023/02/22 08:10:57;;;;;;;14.55;9.30;;;7.30;99.90;;;;;;5035341;28;20046;-82
2023/02/22 08:13:23;;;;;;;16.25;10.05;;;7.40;99.90;;;;;;5028647;28;20496;-83
2023/02/22 08:15:54;;;;;;;15.50;10.38;;;7.50;99.90;;;;;;5020105;28;20057;-82
2023/02/22 08:18:22;;;;;;;14.98;8.88;;;7.60;99.90;;;;;;5027380;28;20065;-82
2023/02/22 08:20:50;;;;;;;16.42;9.25;;;7.70;99.90;;;;;;5026934;28;20065;-83
2023/02/22 08:23:19;;;;;;;18.17;9.43;;;7.90;99.90;;;;;;5030655;28;20049;-82
2023/02/22 08:25:45;;;;;;;13.57;9.15;;;8.10;99.90;;;;;;5019905;28;20705;-83
2023/02/22 08:28:14;;;;;;;18.38;10.60;;;8.10;99.90;;;;;;5015911;28;20086;-83
2023/02/22 08:30:45;;;;;;;19.67;10.13;;;8.20;99.90;;;;;;5023415;28;20153;-82
2023/02/22 08:33:17;;;;;;;;;;;8.30;99.90;;;;;;5026525;28;20079;-83
2023/02/22 08:35:48;;;;;;;17.00;10.63;;;8.40;99.90;;;;;;5027239;28;19995;-82
2023/02/22 08:38:16;;;;;;;;;;;8.50;99.90;;;;;;5025933;28;20038;-84
2023/02/22 08:40:43;;;;;;;23.08;11.90;;;8.60;99.90;;;;;;5038253;28;19921;-84
2023/02/22 08:43:12;;;;;;;23.02;11.15;;;8.70;99.90;;;;;;5030544;28;20041;-83
2023/02/22 08:45:39;;;;;;;16.88;10.70;;;8.70;99.90;;;;;;5022891;28;20089;-84
2023/02/22 08:48:06;;;;;;;20.38;12.38;;;8.80;99.90;;;;;;5026253;28;20050;-81
2023/02/22 08:50:33;;;;;;;19.30;11.10;;;8.90;99.90;;;;;;5032517;28;20060;-82
2023/02/22 08:53:02;;;;;;;22.98;11.55;;;8.90;99.90;;;;;;5032371;28;20077;-82
2023/02/22 08:55:34;;;;;;;20.63;11.88;;;8.90;99.90;;;;;;5026746;28;20077;-82
2023/02/22 08:58:02;;;;;;;22.70;11.93;;;9.00;99.90;;;;;;5024517;28;20046;-81
2023/02/22 09:00:31;;;;;;;20.42;11.57;;;9.10;99.90;;;;;;5019654;28;20045;-82
2023/02/22 09:03:03;;;;;;;20.98;13.75;;;9.20;99.90;;;;;;5026966;28;20060;-82
2023/02/22 09:05:29;;;;;;;18.02;11.90;;;9.30;99.90;;;;;;5034433;28;20077;-82
2023/02/22 09:07:57;;;;;;;19.15;12.10;;;9.40;99.90;;;;;;5014665;28;20054;-82
2023/02/22 09:10:27;;;;;;;22.95;13.68;;;9.50;99.90;;;;;;5022404;28;20056;-82
2023/02/22 09:12:54;;;;;;;20.08;13.68;;;9.50;99.90;;;;;;5036761;28;20184;-82
2023/02/22 09:15:22;;;;;;;18.25;12.73;;;9.50;99.90;;;;;;5022192;28;20084;-82
2023/02/22 09:17:49;;;;;;;20.98;13.30;;;9.60;99.90;;;;;;5024553;28;20074;-81
2023/02/22 09:20:18;;;;;;;18.95;12.63;;;9.70;99.90;;;;;;5018294;28;20084;-82
2023/02/22 09:22:47;;;;;;;19.10;13.43;;;9.70;99.90;;;;;;5024343;28;20113;-82
2023/02/22 09:25:14;;;;;;;19.67;12.88;;;9.80;99.90;;;;;;5019220;28;20049;-83
2023/02/22 09:27:43;;;;;;;25.48;12.75;;;9.90;99.90;;;;;;5018979;28;20060;-83
2023/02/22 09:30:25;;;;;;;17.10;12.07;;;9.90;99.90;;;;;;5021311;28;20038;-84
2023/02/22 09:32:54;;;;;;;23.05;13.38;;;10.00;99.90;;;;;;5018939;28;20532;-82
2023/02/22 09:35:25;;;;;;;20.42;12.75;;;10.10;99.90;;;;;;5019077;28;20519;-83
2023/02/22 09:37:58;;;;;;;18.55;12.52;;;10.20;99.90;;;;;;5018613;28;20047;-83
2023/02/22 09:40:28;;;;;;;23.52;13.32;;;10.20;99.90;;;;;;5020737;28;20045;-83
2023/02/22 09:43:08;;;;;;;;;;;10.20;99.90;;;;;;5015932;28;20064;-82
2023/02/22 09:45:43;;;;;;;17.25;11.85;;;10.30;99.90;;;;;;5013042;28;19936;-82
2023/02/22 09:48:14;;;;;;;22.85;12.32;;;10.30;99.90;;;;;;5027908;28;20128;-82
2023/02/22 09:50:50;;;;;;;23.75;13.25;;;10.40;99.90;;;;;;5038990;28;20052;-82
2023/02/22 09:53:28;;;;;;;21.48;12.70;;;10.40;99.90;;;;;;5024209;28;20072;-82
2023/02/22 09:56:05;;;;;;;20.88;13.45;;;10.40;99.90;;;;;;5025638;28;20266;-83
2023/02/22 09:58:35;;;;;;;28.30;14.30;;;10.50;99.90;;;;;;5043976;28;20049;-82
2023/02/22 10:01:22;;;;;;;20.42;13.27;;;10.50;99.90;;;;;;5029451;28;20535;-83
2023/02/22 10:04:02;;;;;;;23.33;14.27;;;10.50;99.90;;;;;;5026392;28;20048;-82
2023/02/22 10:06:32;;;;;;;25.65;13.45;;;10.60;99.90;;;;;;5026512;28;20088;-83
2023/02/22 10:09:06;;;;;;;17.90;13.47;;;10.60;99.90;;;;;;5023672;28;20505;-82
2023/02/22 10:11:56;;;;;;;23.88;13.73;;;10.60;99.90;;;;;;5024515;28;20816;-82
2023/02/22 10:14:50;;;;;;;24.88;14.70;;;10.60;99.90;;;;;;5028999;28;20042;-82
2023/02/22 10:17:27;;;;;;;23.48;14.48;;;10.60;99.90;;;;;;5025927;28;20511;-83
2023/02/22 10:19:56;;;;;;;24.48;15.35;;;10.70;99.90;;;;;;5014433;28;20038;-82
2023/02/22 10:22:44;;;;;;;22.97;14.30;;;10.70;99.90;;;;;;5022869;28;20073;-83
2023/02/22 10:25:24;;;;;;;24.55;14.48;;;10.80;99.90;;;;;;5025619;28;20285;-83
2023/02/22 10:28:05;;;;;;;22.73;14.73;;;10.80;99.90;;;;;;5026106;28;20076;-84
2023/02/22 10:30:33;;;;;;;20.77;12.57;;;10.80;99.90;;;;;;5028895;28;20087;-83
2023/02/22 10:33:04;;;;;;;22.00;14.00;;;10.80;99.90;;;;;;5038281;28;20044;-83
2023/02/22 10:35:36;;;;;;;22.55;13.55;;;10.80;99.90;;;;;;5027593;28;20045;-83
2023/02/22 10:38:15;;;;;;;19.33;13.23;;;10.90;99.90;;;;;;5020770;28;20042;-82
2023/02/22 10:40:53;;;;;;;20.55;13.55;;;11.00;99.90;;;;;;5028004;28;20057;-83
2023/02/22 10:43:22;;;;;;;22.17;13.25;;;11.00;99.90;;;;;;5032933;28;20049;-85
2023/02/22 10:45:55;;;;;;;22.05;14.13;;;11.10;99.90;;;;;;5022131;28;20050;-83
2023/02/22 10:48:25;;;;;;;20.50;13.60;;;11.20;99.90;;;;;;5025271;28;20072;-83
2023/02/22 10:50:55;;;;;;;23.45;13.27;;;11.20;99.90;;;;;;5022981;28;20113;-84
2023/02/22 10:53:22;;;;;;;;;;;11.30;99.90;;;;;;5024434;28;20052;-83
2023/02/22 10:56:05;;;;;;;21.42;13.40;;;11.40;99.90;;;;;;5032837;28;19960;-83
2023/02/22 10:58:40;;;;;;;22.25;15.18;;;11.50;99.90;;;;;;5039655;28;20491;-83
2023/02/22 11:01:20;;;;;;;20.58;12.82;;;11.50;99.90;;;;;;5059221;28;20045;-82
2023/02/22 11:04:12;;;;;;;20.23;13.02;;;11.50;99.90;;;;;;5026529;28;20061;-83
2023/02/22 11:06:41;;;;;;;20.95;13.43;;;11.50;99.90;;;;;;5028997;28;20081;-83
2023/02/22 11:09:12;;;;;;;21.52;13.18;;;11.60;99.90;;;;;;5032008;28;20046;-82
2023/02/22 11:11:42;;;;;;;21.40;13.20;;;11.60;99.90;;;;;;5019585;28;20060;-81
2023/02/22 11:14:10;;;;;;;21.33;12.98;;;11.70;99.90;;;;;;5027356;28;20072;-83
2023/02/22 11:16:38;;;;;;;19.20;12.13;;;11.70;99.90;;;;;;5020456;28;20077;-83
2023/02/22 11:19:28;;;;;;;22.52;13.20;;;11.80;99.90;;;;;;5023402;28;20125;-83
2023/02/22 11:22:17;;;;;;;20.63;12.20;;;11.80;99.90;;;;;;5024535;28;20048;-82
2023/02/22 11:24:50;;;;;;;20.88;13.25;;;11.90;99.90;;;;;;5028147;28;20133;-83
2023/02/22 11:27:30;;;;;;;20.27;13.30;;;12.00;99.90;;;;;;5032756;28;20109;-81
2023/02/22 11:30:16;;;;;;;18.70;12.73;;;12.10;99.90;;;;;;5022849;28;20042;-83
2023/02/22 11:32:46;;;;;;;22.73;13.60;;;12.20;99.90;;;;;;5024273;28;20041;-82
2023/02/22 11:35:28;;;;;;;20.85;13.60;;;12.30;99.90;;;;;;5021792;28;20042;-83
2023/02/22 11:38:22;;;;;;;21.23;12.23;;;12.40;99.90;;;;;;5039066;28;20425;-83
2023/02/22 11:41:15;;;;;;;17.88;12.63;;;12.50;99.90;;;;;;5030453;28;20102;-83
2023/02/22 11:43:46;;;;;;;21.05;12.27;;;12.50;99.90;;;;;;5042177;28;20079;-83
2023/02/22 11:46:17;;;;;;;21.00;13.13;;;12.50;99.90;;;;;;5030731;28;20068;-83
2023/02/22 11:49:16;;;;;;;18.30;12.77;;;12.60;99.90;;;;;;5047018;28;20053;-81
2023/02/22 11:52:02;;;;;;;17.77;11.82;;;12.60;99.90;;;;;;5003420;28;20054;-84
2023/02/22 11:55:20;;;;;;;24.25;12.68;;;12.60;99.90;;;;;;5025167;28;20105;-82
2023/02/22 11:58:08;;;;;;;18.52;12.27;;;12.60;99.90;;;;;;5026298;28;20114;-83
2023/02/22 12:00:59;;;;;;;19.13;12.18;;;12.60;99.90;;;;;;5019869;28;20046;-83
2023/02/22 12:04:07;;;;;;;18.25;12.13;;;12.60;99.90;;;;;;5023107;28;20069;-82
2023/02/22 12:06:55;;;;;;;17.50;12.77;;;12.60;99.90;;;;;;5028166;28;20487;-82
2023/02/22 12:09:47;;;;;;;18.05;12.50;;;12.70;99.90;;;;;;5032686;28;20121;-82
2023/02/22 12:12:32;;;;;;;20.27;12.60;;;12.70;99.90;;;;;;5014496;28;20481;-80
2023/02/22 12:15:12;;;;;;;21.52;12.45;;;12.70;99.90;;;;;;5013801;28;20054;-84
2023/02/22 12:18:17;;;;;;;17.85;12.10;;;12.80;99.90;;;;;;5014077;28;20056;-84
2023/02/22 12:20:55;;;;;;;20.35;12.60;;;12.80;99.90;;;;;;5024786;28;20077;-84
2023/02/22 12:23:32;;;;;;;17.98;12.52;;;12.80;99.90;;;;;;5029388;28;20045;-84
2023/02/22 12:26:12;;;;;;;20.92;12.98;;;12.80;99.90;;;;;;5024768;28;20042;-83
2023/02/22 12:28:42;;;;;;;17.40;12.40;;;12.90;99.90;;;;;;5016917;28;20069;-84
2023/02/22 12:31:09;;;;;;;;;;;12.90;99.90;;;;;;5026026;28;20088;-84
2023/02/22 12:33:48;;;;;;;18.88;13.63;;;12.90;99.90;;;;;;5020961;28;20016;-85
2023/02/22 12:36:19;;;;;;;17.73;12.82;;;13.00;99.90;;;;;;5031294;28;20050;-84
2023/02/22 12:38:53;;;;;;;19.25;12.93;;;13.00;99.90;;;;;;5021529;28;20125;-83
2023/02/22 12:41:45;;;;;;;19.63;12.88;;;13.00;99.90;;;;;;5023416;28;20081;-83
2023/02/22 12:44:20;;;;;;;17.20;12.60;;;13.00;99.90;;;;;;5022572;28;20073;-84
2023/02/22 12:46:52;;;;;;;18.67;13.00;;;13.10;99.90;;;;;;5040827;28;20576;-84
2023/02/22 12:49:33;;;;;;;21.73;13.43;;;13.00;99.90;;;;;;5043305;28;20056;-82
2023/02/22 12:52:03;;;;;;;23.63;13.25;;;13.00;99.90;;;;;;5022380;28;20483;-84
2023/02/22 12:55:19;;;;;;;34.95;14.65;;;13.10;99.90;;;;;;5029602;28;20042;-84
2023/02/22 12:58:12;;;;;;;18.15;12.63;;;13.10;99.90;;;;;;5021810;28;20417;-83
2023/02/22 13:00:45;;;;;;;21.75;13.07;;;13.10;99.90;;;;;;5029768;28;20057;-83
2023/02/22 13:03:25;;;;;;;18.23;13.10;;;13.20;99.90;;;;;;5021487;28;20046;-82
2023/02/22 13:06:13;;;;;;;20.02;13.48;;;13.20;99.90;;;;;;5023036;28;20580;-84
2023/02/22 13:08:54;;;;;;;18.73;13.43;;;13.20;99.90;;;;;;5020905;28;20054;-83
2023/02/22 13:11:36;;;;;;;24.05;13.80;;;13.30;99.90;;;;;;5020710;28;20049;-84
2023/02/22 13:14:31;;;;;;;22.77;14.30;;;13.30;99.90;;;;;;5019140;28;20041;-83
2023/02/22 13:17:28;;;;;;;19.08;13.45;;;13.30;99.90;;;;;;5023026;28;20069;-82
2023/02/22 13:20:06;;;;;;;20.33;14.18;;;13.30;99.90;;;;;;5035306;28;20041;-83